sensor_id;sensor_type;location;lat;lon;timestamp;P1;durP1;ratioP1;P2;durP2;ratioP2
6997;SDS011;3539;47.982;12.238;2023-07-29T00:01:15;2.00;;;1.80;;
6997;SDS011;3539;47.982;12.238;2023-07-29T00:03:43;2.37;;;2.03;;
6997;SDS011;3539;47.982;12.238;2023-07-29T00:06:10;2.60;;;1.77;;
6997;SDS011;3539;47.982;12.238;2023-07-29T00:08:37;3.07;;;2.10;;
6997;SDS011;3539;47.982;12.238;2023-07-29T00:11:04;2.60;;;2.20;;
6997;SDS011;3539;47.982;12.238;2023-07-29T00:13:31;2.40;;;1.93;;
6997;SDS011;3539;47.982;12.238;2023-07-29T00:15:58;3.00;;;2.07;;
6997;SDS011;3539;47.982;12.238;2023-07-29T00:18:25;2.53;;;2.00;;
6997;SDS011;3539;47.982;12.238;2023-07-29T00:20:54;2.63;;;2.20;;
6997;SDS011;3539;47.982;12.238;2023-07-29T00:23:21;2.20;;;2.00;;
6997;SDS011;3539;47.982;12.238;2023-07-29T00:25:48;3.63;;;2.30;;
6997;SDS011;3539;47.982;12.238;2023-07-29T00:28:15;3.80;;;2.13;;
6997;SDS011;3539;47.982;12.238;2023-07-29T00:30:42;2.50;;;2.20;;
6997;SDS011;3539;47.982;12.238;2023-07-29T00:33:09;2.40;;;2.00;;
6997;SDS011;3539;47.982;12.238;2023-07-29T00:35:36;5.33;;;2.10;;
6997;SDS011;3539;47.982;12.238;2023-07-29T00:38:04;3.17;;;2.27;;
6997;SDS011;3539;47.982;12.238;2023-07-29T00:40:31;2.93;;;2.30;;
6997;SDS011;3539;47.982;12.238;2023-07-29T00:43:01;3.63;;;2.50;;
6997;SDS011;3539;47.982;12.238;2023-07-29T00:45:29;2.57;;;2.27;;
6997;SDS011;3539;47.982;12.238;2023-07-29T00:47:56;4.43;;;2.40;;
6997;SDS011;3539;47.982;12.238;2023-07-29T00:50:23;2.50;;;2.30;;
6997;SDS011;3539;47.982;12.238;2023-07-29T00:52:50;3.83;;;2.60;;
6997;SDS011;3539;47.982;12.238;2023-07-29T00:55:18;3.53;;;2.10;;
6997;SDS011;3539;47.982;12.238;2023-07-29T00:57:46;2.87;;;2.43;;
6997;SDS011;3539;47.982;12.238;2023-07-29T01:00:14;3.53;;;2.30;;
6997;SDS011;3539;47.982;12.238;2023-07-29T01:02:44;2.73;;;2.23;;
6997;SDS011;3539;47.982;12.238;2023-07-29T01:05:12;2.07;;;1.87;;
6997;SDS011;3539;47.982;12.238;2023-07-29T01:07:43;2.97;;;2.07;;
6997;SDS011;3539;47.982;12.238;2023-07-29T01:10:15;1.90;;;1.70;;
6997;SDS011;3539;47.982;12.238;2023-07-29T01:12:51;5.27;;;2.13;;
6997;SDS011;3539;47.982;12.238;2023-07-29T01:15:22;2.73;;;1.90;;
6997;SDS011;3539;47.982;12.238;2023-07-29T01:17:52;3.23;;;2.10;;
6997;SDS011;3539;47.982;12.238;2023-07-29T01:20:21;2.87;;;2.20;;
6997;SDS011;3539;47.982;12.238;2023-07-29T01:22:50;3.33;;;2.33;;
6997;SDS011;3539;47.982;12.238;2023-07-29T01:25:19;2.80;;;2.30;;
6997;SDS011;3539;47.982;12.238;2023-07-29T01:27:46;4.07;;;2.53;;
6997;SDS011;3539;47.982;12.238;2023-07-29T01:30:16;3.33;;;2.17;;
6997;SDS011;3539;47.982;12.238;2023-07-29T01:32:45;2.63;;;2.20;;
6997;SDS011;3539;47.982;12.238;2023-07-29T01:35:18;2.90;;;2.10;;
6997;SDS011;3539;47.982;12.238;2023-07-29T01:37:49;2.80;;;2.40;;
6997;SDS011;3539;47.982;12.238;2023-07-29T01:40:20;2.63;;;1.87;;
6997;SDS011;3539;47.982;12.238;2023-07-29T01:42:48;2.43;;;2.20;;
6997;SDS011;3539;47.982;12.238;2023-07-29T01:45:16;2.73;;;2.00;;
6997;SDS011;3539;47.982;12.238;2023-07-29T01:47:43;2.60;;;2.10;;
6997;SDS011;3539;47.982;12.238;2023-07-29T01:50:10;2.53;;;2.20;;
6997;SDS011;3539;47.982;12.238;2023-07-29T01:52:37;3.60;;;2.10;;
6997;SDS011;3539;47.982;12.238;2023-07-29T01:55:04;2.00;;;1.80;;
6997;SDS011;3539;47.982;12.238;2023-07-29T01:57:33;2.23;;;2.00;;
6997;SDS011;3539;47.982;12.238;2023-07-29T01:59:59;4.33;;;2.23;;
6997;SDS011;3539;47.982;12.238;2023-07-29T02:02:27;2.20;;;2.00;;
6997;SDS011;3539;47.982;12.238;2023-07-29T02:04:54;2.50;;;2.30;;
6997;SDS011;3539;47.982;12.238;2023-07-29T02:07:21;2.73;;;2.47;;
6997;SDS011;3539;47.982;12.238;2023-07-29T02:09:48;2.53;;;2.27;;
6997;SDS011;3539;47.982;12.238;2023-07-29T02:12:14;2.20;;;2.00;;
6997;SDS011;3539;47.982;12.238;2023-07-29T02:14:43;3.23;;;2.30;;
6997;SDS011;3539;47.982;12.238;2023-07-29T02:17:10;4.57;;;2.50;;
6997;SDS011;3539;47.982;12.238;2023-07-29T02:19:37;6.57;;;2.37;;
6997;SDS011;3539;47.982;12.238;2023-07-29T02:22:04;2.93;;;1.90;;
6997;SDS011;3539;47.982;12.238;2023-07-29T02:24:31;3.13;;;2.30;;
6997;SDS011;3539;47.982;12.238;2023-07-29T02:26:58;2.70;;;2.10;;
6997;SDS011;3539;47.982;12.238;2023-07-29T02:29:25;3.07;;;2.03;;
6997;SDS011;3539;47.982;12.238;2023-07-29T02:31:54;3.17;;;1.77;;
6997;SDS011;3539;47.982;12.238;2023-07-29T02:34:21;2.10;;;1.90;;
6997;SDS011;3539;47.982;12.238;2023-07-29T02:36:48;2.88;;;1.92;;
6997;SDS011;3539;47.982;12.238;2023-07-29T02:39:14;3.07;;;1.70;;
6997;SDS011;3539;47.982;12.238;2023-07-29T02:41:41;2.83;;;1.83;;
6997;SDS011;3539;47.982;12.238;2023-07-29T02:44:08;1.87;;;1.77;;
6997;SDS011;3539;47.982;12.238;2023-07-29T02:46:35;2.20;;;1.97;;
6997;SDS011;3539;47.982;12.238;2023-07-29T02:49:04;2.40;;;1.90;;
6997;SDS011;3539;47.982;12.238;2023-07-29T02:51:33;1.83;;;1.70;;
6997;SDS011;3539;47.982;12.238;2023-07-29T02:54:02;2.40;;;1.83;;
6997;SDS011;3539;47.982;12.238;2023-07-29T02:56:29;2.63;;;2.00;;
6997;SDS011;3539;47.982;12.238;2023-07-29T02:58:57;3.03;;;1.80;;
6997;SDS011;3539;47.982;12.238;2023-07-29T03:01:25;2.50;;;2.00;;
6997;SDS011;3539;47.982;12.238;2023-07-29T03:03:52;2.20;;;1.80;;
6997;SDS011;3539;47.982;12.238;2023-07-29T03:06:20;2.80;;;2.40;;
6997;SDS011;3539;47.982;12.238;2023-07-29T03:08:47;2.23;;;1.67;;
6997;SDS011;3539;47.982;12.238;2023-07-29T03:11:15;2.07;;;1.83;;
6997;SDS011;3539;47.982;12.238;2023-07-29T03:13:42;4.23;;;1.80;;
6997;SDS011;3539;47.982;12.238;2023-07-29T03:16:11;2.53;;;1.90;;
6997;SDS011;3539;47.982;12.238;2023-07-29T03:18:38;2.07;;;1.87;;
6997;SDS011;3539;47.982;12.238;2023-07-29T03:21:06;1.97;;;1.70;;
6997;SDS011;3539;47.982;12.238;2023-07-29T03:23:34;2.60;;;1.67;;
6997;SDS011;3539;47.982;12.238;2023-07-29T03:26:02;2.13;;;1.87;;
6997;SDS011;3539;47.982;12.238;2023-07-29T03:28:35;3.40;;;1.97;;
6997;SDS011;3539;47.982;12.238;2023-07-29T03:31:03;2.73;;;2.03;;
6997;SDS011;3539;47.982;12.238;2023-07-29T03:33:30;1.90;;;1.70;;
6997;SDS011;3539;47.982;12.238;2023-07-29T03:35:57;2.00;;;1.80;;
6997;SDS011;3539;47.982;12.238;2023-07-29T03:38:24;2.47;;;2.10;;
6997;SDS011;3539;47.982;12.238;2023-07-29T03:40:52;2.47;;;2.10;;
6997;SDS011;3539;47.982;12.238;2023-07-29T03:43:19;5.37;;;2.17;;
6997;SDS011;3539;47.982;12.238;2023-07-29T03:45:46;2.10;;;1.90;;
6997;SDS011;3539;47.982;12.238;2023-07-29T03:48:13;3.23;;;2.23;;
6997;SDS011;3539;47.982;12.238;2023-07-29T03:50:40;2.30;;;1.93;;
6997;SDS011;3539;47.982;12.238;2023-07-29T03:53:07;6.37;;;2.50;;
6997;SDS011;3539;47.982;12.238;2023-07-29T03:55:35;2.33;;;2.10;;
6997;SDS011;3539;47.982;12.238;2023-07-29T03:58:03;2.53;;;1.93;;
6997;SDS011;3539;47.982;12.238;2023-07-29T04:00:30;5.37;;;2.53;;
6997;SDS011;3539;47.982;12.238;2023-07-29T04:02:57;2.00;;;1.70;;
6997;SDS011;3539;47.982;12.238;2023-07-29T04:05:24;2.60;;;1.70;;
6997;SDS011;3539;47.982;12.238;2023-07-29T04:07:51;3.20;;;1.87;;
6997;SDS011;3539;47.982;12.238;2023-07-29T04:10:19;3.50;;;1.90;;
6997;SDS011;3539;47.982;12.238;2023-07-29T04:12:46;2.77;;;1.80;;
6997;SDS011;3539;47.982;12.238;2023-07-29T04:15:14;2.73;;;2.03;;
6997;SDS011;3539;47.982;12.238;2023-07-29T04:17:41;2.90;;;2.60;;
6997;SDS011;3539;47.982;12.238;2023-07-29T04:20:11;3.80;;;3.10;;
6997;SDS011;3539;47.982;12.238;2023-07-29T04:22:38;4.10;;;3.13;;
6997;SDS011;3539;47.982;12.238;2023-07-29T04:25:05;6.47;;;3.30;;
6997;SDS011;3539;47.982;12.238;2023-07-29T04:27:33;4.33;;;3.40;;
6997;SDS011;3539;47.982;12.238;2023-07-29T04:30:00;4.03;;;3.20;;
6997;SDS011;3539;47.982;12.238;2023-07-29T04:32:28;3.80;;;3.37;;
6997;SDS011;3539;47.982;12.238;2023-07-29T04:34:55;3.93;;;3.53;;
6997;SDS011;3539;47.982;12.238;2023-07-29T04:37:24;4.60;;;3.47;;
6997;SDS011;3539;47.982;12.238;2023-07-29T04:39:51;3.97;;;2.90;;
6997;SDS011;3539;47.982;12.238;2023-07-29T04:42:18;3.47;;;2.47;;
6997;SDS011;3539;47.982;12.238;2023-07-29T04:44:45;6.27;;;2.70;;
6997;SDS011;3539;47.982;12.238;2023-07-29T04:47:12;3.00;;;2.67;;
6997;SDS011;3539;47.982;12.238;2023-07-29T04:49:41;2.57;;;2.37;;
6997;SDS011;3539;47.982;12.238;2023-07-29T04:52:08;2.63;;;2.33;;
6997;SDS011;3539;47.982;12.238;2023-07-29T04:54:35;2.53;;;1.90;;
6997;SDS011;3539;47.982;12.238;2023-07-29T04:57:02;2.77;;;2.10;;
6997;SDS011;3539;47.982;12.238;2023-07-29T04:59:30;2.40;;;2.10;;
6997;SDS011;3539;47.982;12.238;2023-07-29T05:01:57;2.33;;;2.13;;
6997;SDS011;3539;47.982;12.238;2023-07-29T05:04:26;2.80;;;2.17;;
6997;SDS011;3539;47.982;12.238;2023-07-29T05:18:38;2.63;;;2.43;;
6997;SDS011;3539;47.982;12.238;2023-07-29T05:21:05;2.70;;;2.17;;
6997;SDS011;3539;47.982;12.238;2023-07-29T05:23:45;2.50;;;2.20;;
6997;SDS011;3539;47.982;12.238;2023-07-29T05:26:12;2.17;;;1.93;;
6997;SDS011;3539;47.982;12.238;2023-07-29T05:28:39;2.17;;;1.97;;
6997;SDS011;3539;47.982;12.238;2023-07-29T05:31:06;4.57;;;2.20;;
6997;SDS011;3539;47.982;12.238;2023-07-29T05:33:33;3.60;;;2.57;;
6997;SDS011;3539;47.982;12.238;2023-07-29T05:36:01;3.13;;;2.13;;
6997;SDS011;3539;47.982;12.238;2023-07-29T05:38:28;4.07;;;2.40;;
6997;SDS011;3539;47.982;12.238;2023-07-29T05:40:56;2.23;;;2.03;;
6997;SDS011;3539;47.982;12.238;2023-07-29T05:43:23;2.30;;;2.07;;
6997;SDS011;3539;47.982;12.238;2023-07-29T05:46:04;2.70;;;2.33;;
6997;SDS011;3539;47.982;12.238;2023-07-29T05:48:31;4.33;;;2.40;;
6997;SDS011;3539;47.982;12.238;2023-07-29T05:50:59;2.57;;;2.37;;
6997;SDS011;3539;47.982;12.238;2023-07-29T05:53:25;2.90;;;2.60;;
6997;SDS011;3539;47.982;12.238;2023-07-29T05:55:52;2.80;;;2.30;;
6997;SDS011;3539;47.982;12.238;2023-07-29T05:58:40;2.47;;;2.27;;
6997;SDS011;3539;47.982;12.238;2023-07-29T06:01:07;2.40;;;2.20;;
6997;SDS011;3539;47.982;12.238;2023-07-29T06:03:34;3.77;;;2.50;;
6997;SDS011;3539;47.982;12.238;2023-07-29T06:06:08;2.43;;;2.23;;
6997;SDS011;3539;47.982;12.238;2023-07-29T06:08:41;3.17;;;2.03;;
6997;SDS011;3539;47.982;12.238;2023-07-29T06:11:08;2.77;;;2.40;;
6997;SDS011;3539;47.982;12.238;2023-07-29T06:13:37;2.57;;;2.37;;
6997;SDS011;3539;47.982;12.238;2023-07-29T06:16:09;3.30;;;2.23;;
6997;SDS011;3539;47.982;12.238;2023-07-29T06:18:37;2.37;;;2.00;;
6997;SDS011;3539;47.982;12.238;2023-07-29T06:21:07;2.63;;;2.20;;
6997;SDS011;3539;47.982;12.238;2023-07-29T06:23:47;2.80;;;2.07;;
6997;SDS011;3539;47.982;12.238;2023-07-29T06:26:28;2.70;;;2.40;;
6997;SDS011;3539;47.982;12.238;2023-07-29T06:29:24;2.30;;;2.10;;
6997;SDS011;3539;47.982;12.238;2023-07-29T06:32:07;2.00;;;1.80;;
6997;SDS011;3539;47.982;12.238;2023-07-29T06:34:34;3.30;;;2.30;;
6997;SDS011;3539;47.982;12.238;2023-07-29T06:37:01;2.43;;;1.93;;
6997;SDS011;3539;47.982;12.238;2023-07-29T06:39:28;2.87;;;2.20;;
6997;SDS011;3539;47.982;12.238;2023-07-29T06:41:56;2.43;;;2.10;;
6997;SDS011;3539;47.982;12.238;2023-07-29T06:44:24;2.00;;;1.80;;
6997;SDS011;3539;47.982;12.238;2023-07-29T06:46:51;2.43;;;2.23;;
6997;SDS011;3539;47.982;12.238;2023-07-29T06:49:18;2.30;;;2.10;;
6997;SDS011;3539;47.982;12.238;2023-07-29T06:51:44;2.27;;;2.03;;
6997;SDS011;3539;47.982;12.238;2023-07-29T06:54:11;3.20;;;2.30;;
6997;SDS011;3539;47.982;12.238;2023-07-29T06:56:38;2.73;;;1.97;;
6997;SDS011;3539;47.982;12.238;2023-07-29T06:59:05;1.90;;;1.70;;
6997;SDS011;3539;47.982;12.238;2023-07-29T07:01:33;1.60;;;1.50;;
6997;SDS011;3539;47.982;12.238;2023-07-29T07:04:00;1.80;;;1.70;;
6997;SDS011;3539;47.982;12.238;2023-07-29T07:06:27;1.73;;;1.63;;
6997;SDS011;3539;47.982;12.238;2023-07-29T07:08:54;3.10;;;2.03;;
6997;SDS011;3539;47.982;12.238;2023-07-29T07:11:21;2.33;;;1.60;;
6997;SDS011;3539;47.982;12.238;2023-07-29T07:13:47;1.73;;;1.60;;
6997;SDS011;3539;47.982;12.238;2023-07-29T07:16:14;1.70;;;1.47;;
6997;SDS011;3539;47.982;12.238;2023-07-29T07:18:43;2.80;;;1.83;;
6997;SDS011;3539;47.982;12.238;2023-07-29T07:21:09;1.77;;;1.60;;
6997;SDS011;3539;47.982;12.238;2023-07-29T07:23:36;4.10;;;2.20;;
6997;SDS011;3539;47.982;12.238;2023-07-29T07:26:04;2.13;;;1.73;;
6997;SDS011;3539;47.982;12.238;2023-07-29T07:28:31;6.47;;;1.67;;
6997;SDS011;3539;47.982;12.238;2023-07-29T07:30:58;2.40;;;1.77;;
6997;SDS011;3539;47.982;12.238;2023-07-29T07:33:25;1.53;;;1.40;;
6997;SDS011;3539;47.982;12.238;2023-07-29T07:35:53;1.93;;;1.73;;
6997;SDS011;3539;47.982;12.238;2023-07-29T07:38:20;1.77;;;1.63;;
6997;SDS011;3539;47.982;12.238;2023-07-29T07:40:52;3.77;;;1.80;;
6997;SDS011;3539;47.982;12.238;2023-07-29T07:43:20;2.37;;;1.70;;
6997;SDS011;3539;47.982;12.238;2023-07-29T07:45:46;2.10;;;1.90;;
6997;SDS011;3539;47.982;12.238;2023-07-29T07:48:13;3.20;;;1.80;;
6997;SDS011;3539;47.982;12.238;2023-07-29T07:50:41;1.93;;;1.73;;
6997;SDS011;3539;47.982;12.238;2023-07-29T07:53:10;2.40;;;2.00;;
6997;SDS011;3539;47.982;12.238;2023-07-29T07:55:37;2.00;;;1.80;;
6997;SDS011;3539;47.982;12.238;2023-07-29T07:58:04;2.23;;;2.00;;
6997;SDS011;3539;47.982;12.238;2023-07-29T08:00:31;2.37;;;2.10;;
6997;SDS011;3539;47.982;12.238;2023-07-29T08:02:58;2.23;;;1.80;;
6997;SDS011;3539;47.982;12.238;2023-07-29T08:05:24;3.17;;;2.00;;
6997;SDS011;3539;47.982;12.238;2023-07-29T08:07:51;1.70;;;1.60;;
6997;SDS011;3539;47.982;12.238;2023-07-29T08:10:19;3.83;;;1.93;;
6997;SDS011;3539;47.982;12.238;2023-07-29T08:12:46;4.70;;;2.13;;
6997;SDS011;3539;47.982;12.238;2023-07-29T08:15:12;2.07;;;1.87;;
6997;SDS011;3539;47.982;12.238;2023-07-29T08:17:39;2.50;;;2.00;;
6997;SDS011;3539;47.982;12.238;2023-07-29T08:20:06;2.33;;;2.13;;
6997;SDS011;3539;47.982;12.238;2023-07-29T08:22:34;2.40;;;2.20;;
6997;SDS011;3539;47.982;12.238;2023-07-29T08:25:01;2.87;;;2.10;;
6997;SDS011;3539;47.982;12.238;2023-07-29T08:27:30;2.50;;;2.20;;
6997;SDS011;3539;47.982;12.238;2023-07-29T08:29:59;2.60;;;2.20;;
6997;SDS011;3539;47.982;12.238;2023-07-29T08:32:26;2.60;;;2.33;;
6997;SDS011;3539;47.982;12.238;2023-07-29T08:34:53;3.03;;;2.57;;
6997;SDS011;3539;47.982;12.238;2023-07-29T08:37:22;2.70;;;2.13;;
6997;SDS011;3539;47.982;12.238;2023-07-29T08:39:49;3.63;;;2.33;;
6997;SDS011;3539;47.982;12.238;2023-07-29T08:42:19;4.00;;;2.23;;
6997;SDS011;3539;47.982;12.238;2023-07-29T08:44:48;2.40;;;2.00;;
6997;SDS011;3539;47.982;12.238;2023-07-29T08:47:15;3.27;;;2.30;;
6997;SDS011;3539;47.982;12.238;2023-07-29T08:49:42;2.40;;;2.13;;
6997;SDS011;3539;47.982;12.238;2023-07-29T08:52:10;3.37;;;2.20;;
6997;SDS011;3539;47.982;12.238;2023-07-29T08:54:38;2.23;;;2.00;;
6997;SDS011;3539;47.982;12.238;2023-07-29T08:57:05;2.93;;;1.80;;
6997;SDS011;3539;47.982;12.238;2023-07-29T08:59:33;2.27;;;1.90;;
6997;SDS011;3539;47.982;12.238;2023-07-29T09:02:01;3.27;;;2.33;;
6997;SDS011;3539;47.982;12.238;2023-07-29T09:04:28;3.57;;;2.50;;
6997;SDS011;3539;47.982;12.238;2023-07-29T09:06:55;2.10;;;1.90;;
6997;SDS011;3539;47.982;12.238;2023-07-29T09:09:22;3.27;;;1.97;;
6997;SDS011;3539;47.982;12.238;2023-07-29T09:11:49;2.63;;;2.33;;
6997;SDS011;3539;47.982;12.238;2023-07-29T09:14:17;2.37;;;2.00;;
6997;SDS011;3539;47.982;12.238;2023-07-29T09:16:45;2.67;;;1.90;;
6997;SDS011;3539;47.982;12.238;2023-07-29T09:19:16;2.20;;;2.00;;
6997;SDS011;3539;47.982;12.238;2023-07-29T09:21:45;3.83;;;3.30;;
6997;SDS011;3539;47.982;12.238;2023-07-29T09:24:15;3.23;;;2.57;;
6997;SDS011;3539;47.982;12.238;2023-07-29T09:26:48;2.47;;;2.07;;
6997;SDS011;3539;47.982;12.238;2023-07-29T09:29:15;2.53;;;2.33;;
6997;SDS011;3539;47.982;12.238;2023-07-29T09:31:42;2.13;;;1.93;;
6997;SDS011;3539;47.982;12.238;2023-07-29T09:34:09;3.17;;;2.37;;
6997;SDS011;3539;47.982;12.238;2023-07-29T09:36:43;2.77;;;2.20;;
6997;SDS011;3539;47.982;12.238;2023-07-29T09:39:10;3.23;;;2.47;;
6997;SDS011;3539;47.982;12.238;2023-07-29T09:41:38;2.47;;;2.23;;
6997;SDS011;3539;47.982;12.238;2023-07-29T09:44:05;2.47;;;2.20;;
6997;SDS011;3539;47.982;12.238;2023-07-29T09:46:34;2.53;;;2.13;;
6997;SDS011;3539;47.982;12.238;2023-07-29T09:49:01;2.30;;;2.10;;
6997;SDS011;3539;47.982;12.238;2023-07-29T09:51:30;2.37;;;1.80;;
6997;SDS011;3539;47.982;12.238;2023-07-29T09:53:57;3.07;;;2.27;;
6997;SDS011;3539;47.982;12.238;2023-07-29T09:56:24;2.40;;;2.10;;
6997;SDS011;3539;47.982;12.238;2023-07-29T09:58:52;2.60;;;2.07;;
6997;SDS011;3539;47.982;12.238;2023-07-29T10:01:19;2.10;;;1.90;;
6997;SDS011;3539;47.982;12.238;2023-07-29T10:03:46;2.20;;;1.87;;
6997;SDS011;3539;47.982;12.238;2023-07-29T10:06:14;3.80;;;2.27;;
6997;SDS011;3539;47.982;12.238;2023-07-29T10:08:43;2.00;;;1.80;;
6997;SDS011;3539;47.982;12.238;2023-07-29T10:11:10;2.60;;;1.90;;
6997;SDS011;3539;47.982;12.238;2023-07-29T10:13:37;5.07;;;2.20;;
6997;SDS011;3539;47.982;12.238;2023-07-29T10:16:04;2.00;;;1.80;;
6997;SDS011;3539;47.982;12.238;2023-07-29T10:18:32;2.83;;;2.10;;
6997;SDS011;3539;47.982;12.238;2023-07-29T10:21:00;1.93;;;1.77;;
6997;SDS011;3539;47.982;12.238;2023-07-29T10:23:28;2.73;;;1.70;;
6997;SDS011;3539;47.982;12.238;2023-07-29T10:26:02;2.00;;;1.80;;
6997;SDS011;3539;47.982;12.238;2023-07-29T10:28:30;2.80;;;1.83;;
6997;SDS011;3539;47.982;12.238;2023-07-29T10:30:57;1.57;;;1.47;;
6997;SDS011;3539;47.982;12.238;2023-07-29T10:33:25;2.23;;;1.73;;
6997;SDS011;3539;47.982;12.238;2023-07-29T10:35:52;2.00;;;1.80;;
6997;SDS011;3539;47.982;12.238;2023-07-29T10:38:19;2.00;;;1.80;;
6997;SDS011;3539;47.982;12.238;2023-07-29T10:40:49;3.27;;;1.90;;
6997;SDS011;3539;47.982;12.238;2023-07-29T10:43:23;2.30;;;1.70;;
6997;SDS011;3539;47.982;12.238;2023-07-29T10:45:51;2.20;;;2.00;;
6997;SDS011;3539;47.982;12.238;2023-07-29T10:51:25;2.17;;;1.60;;
6997;SDS011;3539;47.982;12.238;2023-07-29T10:53:55;2.07;;;1.87;;
6997;SDS011;3539;47.982;12.238;2023-07-29T10:56:26;2.05;;;1.85;;
6997;SDS011;3539;47.982;12.238;2023-07-29T10:58:56;2.27;;;1.60;;
6997;SDS011;3539;47.982;12.238;2023-07-29T11:01:26;2.00;;;1.80;;
6997;SDS011;3539;47.982;12.238;2023-07-29T11:04:00;2.72;;;2.13;;
6997;SDS011;3539;47.982;12.238;2023-07-29T11:09:51;3.00;;;2.00;;
6997;SDS011;3539;47.982;12.238;2023-07-29T11:12:44;3.97;;;2.00;;
6997;SDS011;3539;47.982;12.238;2023-07-29T11:15:14;2.42;;;1.95;;
6997;SDS011;3539;47.982;12.238;2023-07-29T11:17:43;3.25;;;1.90;;
6997;SDS011;3539;47.982;12.238;2023-07-29T11:20:11;2.17;;;1.98;;
6997;SDS011;3539;47.982;12.238;2023-07-29T11:22:38;2.70;;;2.22;;
6997;SDS011;3539;47.982;12.238;2023-07-29T11:25:06;2.63;;;1.98;;
6997;SDS011;3539;47.982;12.238;2023-07-29T11:27:34;2.20;;;1.88;;
6997;SDS011;3539;47.982;12.238;2023-07-29T11:30:01;2.40;;;2.00;;
6997;SDS011;3539;47.982;12.238;2023-07-29T11:32:31;2.30;;;2.10;;
6997;SDS011;3539;47.982;12.238;2023-07-29T11:35:01;2.03;;;1.77;;
6997;SDS011;3539;47.982;12.238;2023-07-29T11:37:28;4.20;;;2.10;;
6997;SDS011;3539;47.982;12.238;2023-07-29T11:39:55;2.10;;;1.70;;
6997;SDS011;3539;47.982;12.238;2023-07-29T11:42:23;2.47;;;2.10;;
6997;SDS011;3539;47.982;12.238;2023-07-29T11:44:50;2.80;;;2.27;;
6997;SDS011;3539;47.982;12.238;2023-07-29T11:47:17;2.40;;;2.20;;
6997;SDS011;3539;47.982;12.238;2023-07-29T11:49:45;1.97;;;1.70;;
6997;SDS011;3539;47.982;12.238;2023-07-29T11:52:12;3.87;;;2.30;;
6997;SDS011;3539;47.982;12.238;2023-07-29T11:54:39;2.10;;;1.90;;
6997;SDS011;3539;47.982;12.238;2023-07-29T11:57:06;2.20;;;2.00;;
6997;SDS011;3539;47.982;12.238;2023-07-29T11:59:34;2.00;;;1.75;;
6997;SDS011;3539;47.982;12.238;2023-07-29T12:02:01;2.22;;;2.03;;
6997;SDS011;3539;47.982;12.238;2023-07-29T12:04:28;3.28;;;2.20;;
6997;SDS011;3539;47.982;12.238;2023-07-29T12:06:57;2.17;;;1.98;;
6997;SDS011;3539;47.982;12.238;2023-07-29T12:09:24;2.67;;;2.08;;
6997;SDS011;3539;47.982;12.238;2023-07-29T12:11:52;3.23;;;1.73;;
6997;SDS011;3539;47.982;12.238;2023-07-29T12:14:19;2.80;;;2.00;;
6997;SDS011;3539;47.982;12.238;2023-07-29T12:16:47;1.98;;;1.77;;
6997;SDS011;3539;47.982;12.238;2023-07-29T12:19:15;2.60;;;2.10;;
6997;SDS011;3539;47.982;12.238;2023-07-29T12:21:42;3.03;;;2.10;;
6997;SDS011;3539;47.982;12.238;2023-07-29T12:24:11;3.55;;;2.20;;
6997;SDS011;3539;47.982;12.238;2023-07-29T12:26:38;2.15;;;1.88;;
6997;SDS011;3539;47.982;12.238;2023-07-29T12:29:11;2.72;;;1.50;;
6997;SDS011;3539;47.982;12.238;2023-07-29T12:31:38;3.17;;;1.73;;
6997;SDS011;3539;47.982;12.238;2023-07-29T12:34:05;2.10;;;1.60;;
6997;SDS011;3539;47.982;12.238;2023-07-29T12:36:42;1.83;;;1.63;;
6997;SDS011;3539;47.982;12.238;2023-07-29T12:39:17;1.67;;;1.57;;
6997;SDS011;3539;47.982;12.238;2023-07-29T12:41:45;1.77;;;1.43;;
6997;SDS011;3539;47.982;12.238;2023-07-29T12:44:17;2.97;;;1.70;;
6997;SDS011;3539;47.982;12.238;2023-07-29T12:47:09;2.27;;;1.53;;
6997;SDS011;3539;47.982;12.238;2023-07-29T12:49:50;1.40;;;1.30;;
6997;SDS011;3539;47.982;12.238;2023-07-29T12:52:30;1.70;;;1.60;;
6997;SDS011;3539;47.982;12.238;2023-07-29T12:58:14;2.67;;;1.38;;
6997;SDS011;3539;47.982;12.238;2023-07-29T13:00:48;2.45;;;1.60;;
6997;SDS011;3539;47.982;12.238;2023-07-29T13:03:14;1.92;;;1.55;;
6997;SDS011;3539;47.982;12.238;2023-07-29T13:05:52;2.47;;;1.52;;
6997;SDS011;3539;47.982;12.238;2023-07-29T13:08:25;1.65;;;1.55;;
6997;SDS011;3539;47.982;12.238;2023-07-29T13:10:56;3.47;;;1.70;;
6997;SDS011;3539;47.982;12.238;2023-07-29T13:13:29;2.80;;;1.70;;
6997;SDS011;3539;47.982;12.238;2023-07-29T13:16:01;2.28;;;1.80;;
6997;SDS011;3539;47.982;12.238;2023-07-29T13:18:43;3.38;;;1.70;;
6997;SDS011;3539;47.982;12.238;2023-07-29T13:21:26;2.47;;;1.90;;
6997;SDS011;3539;47.982;12.238;2023-07-29T13:24:15;2.22;;;1.75;;
6997;SDS011;3539;47.982;12.238;2023-07-29T13:26:59;2.33;;;1.90;;
6997;SDS011;3539;47.982;12.238;2023-07-29T13:29:33;1.70;;;1.60;;
6997;SDS011;3539;47.982;12.238;2023-07-29T13:32:15;1.63;;;1.52;;
6997;SDS011;3539;47.982;12.238;2023-07-29T13:34:45;2.53;;;1.65;;
6997;SDS011;3539;47.982;12.238;2023-07-29T13:37:46;2.10;;;1.90;;
6997;SDS011;3539;47.982;12.238;2023-07-29T13:40:18;1.92;;;1.70;;
6997;SDS011;3539;47.982;12.238;2023-07-29T13:42:56;1.70;;;1.60;;
6997;SDS011;3539;47.982;12.238;2023-07-29T13:45:24;1.83;;;1.63;;
6997;SDS011;3539;47.982;12.238;2023-07-29T13:47:51;1.77;;;1.67;;
6997;SDS011;3539;47.982;12.238;2023-07-29T13:50:18;2.55;;;1.50;;
6997;SDS011;3539;47.982;12.238;2023-07-29T13:52:46;2.28;;;1.90;;
6997;SDS011;3539;47.982;12.238;2023-07-29T13:55:17;2.23;;;1.80;;
6997;SDS011;3539;47.982;12.238;2023-07-29T13:57:44;3.53;;;1.90;;
6997;SDS011;3539;47.982;12.238;2023-07-29T14:00:19;2.20;;;1.80;;
6997;SDS011;3539;47.982;12.238;2023-07-29T14:02:48;1.77;;;1.50;;
6997;SDS011;3539;47.982;12.238;2023-07-29T14:05:15;2.30;;;2.00;;
6997;SDS011;3539;47.982;12.238;2023-07-29T14:07:42;2.03;;;1.83;;
6997;SDS011;3539;47.982;12.238;2023-07-29T14:10:08;2.70;;;2.00;;
6997;SDS011;3539;47.982;12.238;2023-07-29T14:12:35;2.30;;;2.10;;
6997;SDS011;3539;47.982;12.238;2023-07-29T14:15:03;3.03;;;1.87;;
6997;SDS011;3539;47.982;12.238;2023-07-29T14:17:32;2.53;;;1.93;;
6997;SDS011;3539;47.982;12.238;2023-07-29T14:19:59;3.27;;;2.00;;
6997;SDS011;3539;47.982;12.238;2023-07-29T14:22:27;2.40;;;2.00;;
6997;SDS011;3539;47.982;12.238;2023-07-29T14:24:54;2.57;;;1.80;;
6997;SDS011;3539;47.982;12.238;2023-07-29T14:27:21;2.63;;;2.10;;
6997;SDS011;3539;47.982;12.238;2023-07-29T14:29:48;2.73;;;2.23;;
6997;SDS011;3539;47.982;12.238;2023-07-29T14:32:15;3.87;;;3.00;;
6997;SDS011;3539;47.982;12.238;2023-07-29T14:34:43;2.50;;;1.90;;
6997;SDS011;3539;47.982;12.238;2023-07-29T14:37:10;3.23;;;2.10;;
6997;SDS011;3539;47.982;12.238;2023-07-29T14:39:36;2.43;;;1.90;;
6997;SDS011;3539;47.982;12.238;2023-07-29T14:42:03;2.40;;;1.92;;
6997;SDS011;3539;47.982;12.238;2023-07-29T14:44:31;4.03;;;2.00;;
6997;SDS011;3539;47.982;12.238;2023-07-29T14:47:00;2.73;;;2.13;;
6997;SDS011;3539;47.982;12.238;2023-07-29T14:49:27;2.33;;;1.50;;
6997;SDS011;3539;47.982;12.238;2023-07-29T14:51:55;2.53;;;2.07;;
6997;SDS011;3539;47.982;12.238;2023-07-29T14:54:22;2.80;;;1.93;;
6997;SDS011;3539;47.982;12.238;2023-07-29T14:56:49;2.13;;;1.83;;
6997;SDS011;3539;47.982;12.238;2023-07-29T14:59:15;2.70;;;2.00;;
6997;SDS011;3539;47.982;12.238;2023-07-29T15:01:42;2.00;;;1.80;;
6997;SDS011;3539;47.982;12.238;2023-07-29T15:04:09;1.97;;;1.67;;
6997;SDS011;3539;47.982;12.238;2023-07-29T15:06:39;2.43;;;1.90;;
6997;SDS011;3539;47.982;12.238;2023-07-29T15:09:08;3.03;;;1.77;;
6997;SDS011;3539;47.982;12.238;2023-07-29T15:11:35;1.67;;;1.50;;
6997;SDS011;3539;47.982;12.238;2023-07-29T15:14:03;2.67;;;1.83;;
6997;SDS011;3539;47.982;12.238;2023-07-29T15:16:32;2.67;;;2.00;;
6997;SDS011;3539;47.982;12.238;2023-07-29T15:19:01;2.53;;;2.00;;
6997;SDS011;3539;47.982;12.238;2023-07-29T15:21:36;2.40;;;2.07;;
6997;SDS011;3539;47.982;12.238;2023-07-29T15:24:03;3.47;;;2.17;;
6997;SDS011;3539;47.982;12.238;2023-07-29T15:26:31;2.37;;;1.70;;
6997;SDS011;3539;47.982;12.238;2023-07-29T15:28:59;2.73;;;2.13;;
6997;SDS011;3539;47.982;12.238;2023-07-29T15:31:26;9.90;;;2.10;;